Time;durP1;ratioP1;P1;durP2;ratioP2;P2;SDS_P1;SDS_P2;PMS_P1;PMS_P2;Temp;Humidity;BMP_temperature;BMP_pressure;BME280_temperature;BME280_humidity;BME280_pressure;Samples;Min_cycle;Max_cycle;Signal;HPM_P1;HPM_P2
2021/01/29 00:00:19;;;;;;;14.50;11.95;;;0.70;98.30;;;;;;5102477;23;20233;-83
2021/01/29 00:02:22;;;;;;;13.95;11.05;;;0.80;98.30;;;;;;5098180;23;20231;-83
2021/01/29 00:04:25;;;;;;;15.60;12.20;;;0.70;98.30;;;;;;5098143;23;20585;-83
2021/01/29 00:06:27;;;;;;;15.40;11.43;;;0.70;98.30;;;;;;5097698;23;20226;-84
2021/01/29 00:08:30;;;;;;;14.35;10.40;;;0.50;98.30;;;;;;5098458;23;20207;-83
2021/01/29 00:10:32;;;;;;;19.60;10.52;;;0.50;98.30;;;;;;5098581;23;20196;-83
2021/01/29 00:12:34;;;;;;;14.32;10.57;;;0.60;98.30;;;;;;5098124;23;20539;-83
2021/01/29 00:14:37;;;;;;;13.52;10.70;;;0.60;98.30;;;;;;5098907;23;20643;-83
2021/01/29 00:16:39;;;;;;;14.80;11.40;;;0.50;98.30;;;;;;5091521;23;20241;-84
2021/01/29 00:18:42;;;;;;;13.07;10.18;;;0.60;98.30;;;;;;5097771;23;20689;-84
2021/01/29 00:20:44;;;;;;;14.02;10.70;;;0.60;98.30;;;;;;5097090;23;20200;-83
2021/01/29 00:22:47;;;;;;;12.93;10.40;;;0.60;98.30;;;;;;5097611;23;20278;-83
2021/01/29 00:24:50;;;;;;;13.32;11.07;;;0.60;98.30;;;;;;5089484;23;20548;-83
2021/01/29 00:26:52;;;;;;;15.30;11.45;;;0.70;98.30;;;;;;5097791;23;20206;-83
2021/01/29 00:28:54;;;;;;;12.38;10.80;;;0.60;98.30;;;;;;5097430;23;20234;-83
2021/01/29 00:30:58;;;;;;;14.05;11.15;;;0.60;98.30;;;;;;5097331;23;20743;-83
2021/01/29 00:33:02;;;;;;;14.93;9.80;;;0.60;98.30;;;;;;5097560;23;20207;-83
2021/01/29 00:35:09;;;;;;;11.25;9.95;;;0.60;98.30;;;;;;5098408;23;20207;-83
2021/01/29 00:37:11;;;;;;;13.93;10.45;;;0.60;98.30;;;;;;5099693;23;20214;-82
2021/01/29 00:39:13;;;;;;;14.55;12.45;;;0.70;98.30;;;;;;5099985;23;20199;-83
2021/01/29 00:41:16;;;;;;;11.52;10.13;;;0.60;98.30;;;;;;5099177;23;20238;-81
2021/01/29 00:43:19;;;;;;;12.93;10.00;;;0.70;98.30;;;;;;5099851;23;20256;-81
2021/01/29 00:45:27;;;;;;;12.43;9.73;;;0.60;98.30;;;;;;5100019;23;20233;-80
2021/01/29 00:47:30;;;;;;;10.95;8.95;;;0.70;98.30;;;;;;5099081;23;20225;-81
2021/01/29 00:49:32;;;;;;;12.00;9.60;;;0.70;98.30;;;;;;5098223;23;20207;-81
2021/01/29 00:51:35;;;;;;;12.13;9.20;;;0.60;98.30;;;;;;5099455;23;20199;-81
2021/01/29 00:53:37;;;;;;;14.60;9.40;;;0.60;98.30;;;;;;5100051;23;20211;-80
2021/01/29 00:55:39;;;;;;;13.68;10.25;;;0.50;98.30;;;;;;5099380;23;20215;-82
2021/01/29 00:57:42;;;;;;;16.40;11.80;;;0.60;98.30;;;;;;5100370;23;20204;-83
2021/01/29 00:59:44;;;;;;;15.95;11.13;;;0.50;98.30;;;;;;5099268;23;20237;-84
2021/01/29 01:01:46;;;;;;;19.15;13.05;;;0.60;98.30;;;;;;5099691;23;20226;-85
2021/01/29 01:03:49;;;;;;;13.65;9.30;;;0.40;98.30;;;;;;5099223;23;20221;-83
2021/01/29 01:05:52;;;;;;;9.57;8.68;;;0.40;98.30;;;;;;5091202;23;20215;-82
2021/01/29 01:07:56;;;;;;;11.73;9.25;;;0.30;98.30;;;;;;5090886;23;20210;-81
2021/01/29 01:09:58;;;;;;;14.23;9.85;;;0.50;98.30;;;;;;5099239;23;20214;-82
2021/01/29 01:12:00;;;;;;;9.93;8.27;;;0.40;98.30;;;;;;5099255;23;20227;-83
2021/01/29 01:14:02;;;;;;;9.95;8.95;;;0.50;98.30;;;;;;5091880;23;20265;-83
2021/01/29 01:16:05;;;;;;;10.57;9.48;;;0.40;98.30;;;;;;5099267;23;20211;-83
2021/01/29 01:18:08;;;;;;;17.83;9.18;;;0.40;98.30;;;;;;5100235;23;20535;-82
2021/01/29 01:20:13;;;;;;;15.10;9.30;;;0.40;98.30;;;;;;5100004;23;20209;-82
2021/01/29 01:22:16;;;;;;;9.20;8.32;;;0.50;98.30;;;;;;5099486;23;20544;-82
2021/01/29 01:24:19;;;;;;;8.70;7.80;;;0.40;98.30;;;;;;5100206;23;20206;-82
2021/01/29 01:26:21;;;;;;;9.20;8.23;;;0.40;98.30;;;;;;5101071;23;20203;-83
2021/01/29 01:28:23;;;;;;;10.02;7.82;;;0.30;98.30;;;;;;5099938;23;20230;-82
2021/01/29 01:30:29;;;;;;;12.48;8.55;;;0.40;98.30;;;;;;5091896;23;20210;-83
2021/01/29 01:32:31;;;;;;;10.25;8.38;;;0.40;98.30;;;;;;5100277;23;20199;-82
2021/01/29 01:34:34;;;;;;;9.98;8.23;;;0.40;98.30;;;;;;5092620;23;20208;-82
2021/01/29 01:36:36;;;;;;;8.90;7.40;;;0.40;98.30;;;;;;5100169;23;20274;-83
2021/01/29 01:38:38;;;;;;;11.20;8.55;;;0.40;98.30;;;;;;5100186;23;20817;-82
2021/01/29 01:40:44;;;;;;;10.52;7.68;;;0.40;98.30;;;;;;5099623;23;20203;-83
2021/01/29 01:42:50;;;;;;;10.65;8.15;;;0.30;98.30;;;;;;5100492;23;20196;-83
2021/01/29 01:44:52;;;;;;;10.90;9.00;;;0.30;98.30;;;;;;5100120;23;20205;-82
2021/01/29 01:46:56;;;;;;;10.27;7.68;;;0.40;98.30;;;;;;5100439;23;20199;-81
2021/01/29 01:49:05;;;;;;;13.35;8.85;;;0.30;98.30;;;;;;5091792;23;20221;-83
2021/01/29 01:51:09;;;;;;;8.57;7.72;;;0.20;98.30;;;;;;5100338;23;20202;-82
2021/01/29 01:53:23;;;;;;;9.65;8.45;;;0.20;98.30;;;;;;5091863;23;20258;-81
2021/01/29 01:55:30;;;;;;;9.07;8.15;;;0.30;98.30;;;;;;5091895;23;20591;-81
2021/01/29 01:57:35;;;;;;;8.35;7.45;;;0.30;98.30;;;;;;5100368;23;20205;-81
2021/01/29 01:59:43;;;;;;;9.90;8.23;;;0.30;98.30;;;;;;5090924;23;20242;-83
2021/01/29 02:01:59;;;;;;;11.98;7.70;;;0.30;98.30;;;;;;5099752;23;20205;-82
2021/01/29 02:04:17;;;;;;;8.32;7.38;;;0.40;98.30;;;;;;5087746;23;20600;-82
2021/01/29 02:06:20;;;;;;;10.02;8.30;;;0.30;98.30;;;;;;5091084;23;20210;-82
2021/01/29 02:08:27;;;;;;;12.82;7.97;;;0.40;98.30;;;;;;5099624;23;20213;-82
2021/01/29 02:10:31;;;;;;;8.90;8.00;;;0.40;98.30;;;;;;5099402;23;20258;-82
2021/01/29 02:12:34;;;;;;;10.15;8.15;;;0.40;98.30;;;;;;5097047;23;20667;-83
2021/01/29 02:14:36;;;;;;;10.65;7.90;;;0.40;98.30;;;;;;5100720;23;20211;-82
2021/01/29 02:16:49;;;;;;;10.65;8.00;;;0.30;98.30;;;;;;5100857;23;20290;-83
2021/01/29 02:19:12;;;;;;;8.65;7.53;;;0.30;98.30;;;;;;5100401;23;20202;-83
2021/01/29 02:21:44;;;;;;;11.35;8.38;;;0.30;98.30;;;;;;5101972;23;20688;-83
2021/01/29 02:24:25;;;;;;;9.60;7.47;;;0.30;98.30;;;;;;5099753;23;20737;-83
2021/01/29 02:26:54;;;;;;;9.82;7.90;;;0.30;98.30;;;;;;5099710;23;20737;-82
2021/01/29 02:29:26;;;;;;;9.00;8.05;;;0.30;98.30;;;;;;5086471;23;20301;-82
2021/01/29 02:31:48;;;;;;;8.52;7.63;;;0.20;98.30;;;;;;5099163;23;20213;-82
2021/01/29 02:34:49;;;;;;;8.48;7.50;;;0.20;98.30;;;;;;5098963;23;20228;-82
2021/01/29 02:37:32;;;;;;;11.63;8.00;;;0.20;98.30;;;;;;5000863;23;20632;-83
2021/01/29 02:39:57;;;;;;;10.40;6.88;;;0.10;98.30;;;;;;5086903;23;20574;-83
2021/01/29 02:42:13;;;;;;;10.88;7.85;;;0.20;98.30;;;;;;5099503;23;20283;-82
2021/01/29 02:44:30;;;;;;;9.13;6.50;;;0.20;98.30;;;;;;5099523;23;20285;-83
2021/01/29 02:46:47;;;;;;;8.05;6.50;;;0.30;98.30;;;;;;5099781;23;20205;-82
2021/01/29 02:49:00;;;;;;;6.45;5.72;;;0.30;98.30;;;;;;5099284;23;20210;-84
2021/01/29 02:51:07;;;;;;;10.90;6.60;;;0.30;98.30;;;;;;5100243;23;20240;-82
2021/01/29 02:53:19;;;;;;;7.18;5.95;;;0.30;98.30;;;;;;5100049;23;20205;-82
2021/01/29 02:55:26;;;;;;;7.10;5.85;;;0.30;98.30;;;;;;5100374;23;20276;-83
2021/01/29 02:57:37;;;;;;;6.82;5.93;;;0.20;98.30;;;;;;5099132;23;20209;-83
2021/01/29 02:59:45;;;;;;;10.60;5.78;;;0.20;98.30;;;;;;5091204;23;20255;-83
2021/01/29 03:01:52;;;;;;;6.82;5.00;;;0.20;98.30;;;;;;5091885;23;20211;-82
2021/01/29 03:03:59;;;;;;;6.20;5.50;;;0.20;98.30;;;;;;5091817;23;20206;-82
2021/01/29 03:06:11;;;;;;;9.32;5.28;;;0.20;98.30;;;;;;5100231;23;20207;-83
2021/01/29 03:08:17;;;;;;;7.38;4.97;;;0.30;98.30;;;;;;5100344;23;20235;-82
2021/01/29 03:10:32;;;;;;;5.80;5.20;;;0.30;98.30;;;;;;5098931;23;20256;-83
2021/01/29 03:12:43;;;;;;;7.80;4.88;;;0.30;98.30;;;;;;5099251;23;20681;-83
2021/01/29 03:14:49;;;;;;;8.10;4.65;;;0.20;98.30;;;;;;5099225;23;20588;-83
2021/01/29 03:16:55;;;;;;;5.38;4.68;;;0.20;98.30;;;;;;5099105;23;20206;-82
2021/01/29 03:19:01;;;;;;;6.05;5.25;;;0.30;98.30;;;;;;5098522;23;20799;-83
2021/01/29 03:21:08;;;;;;;6.47;4.85;;;0.30;98.30;;;;;;5098712;23;20260;-82
2021/01/29 03:23:15;;;;;;;5.88;4.30;;;0.30;98.30;;;;;;5099545;23;20214;-83
2021/01/29 03:25:21;;;;;;;7.32;4.82;;;0.30;98.30;;;;;;5099686;23;20199;-83
2021/01/29 03:27:27;;;;;;;9.43;5.38;;;0.30;98.30;;;;;;5100130;23;20244;-83
2021/01/29 03:29:34;;;;;;;5.10;4.40;;;0.40;98.30;;;;;;5099079;23;20203;-82
2021/01/29 03:31:41;;;;;;;6.60;4.70;;;0.40;98.30;;;;;;5099446;23;20202;-82
2021/01/29 03:33:56;;;;;;;6.15;4.20;;;0.40;98.30;;;;;;5091755;23;20237;-83
2021/01/29 03:36:04;;;;;;;5.10;4.30;;;0.40;98.30;;;;;;5100354;23;20210;-82
2021/01/29 03:38:13;;;;;;;5.55;4.43;;;0.30;98.30;;;;;;5100073;23;20287;-82
2021/01/29 03:40:15;;;;;;;10.32;4.50;;;0.30;98.30;;;;;;5099176;23;20199;-83
2021/01/29 03:42:27;;;;;;;9.82;4.20;;;0.40;98.30;;;;;;5100229;23;20206;-83
2021/01/29 03:44:48;;;;;;;6.85;4.22;;;0.40;98.30;;;;;;5099631;23;20229;-83
2021/01/29 03:46:57;;;;;;;4.55;3.88;;;0.40;98.30;;;;;;5100129;23;20199;-82
2021/01/29 03:49:08;;;;;;;5.43;4.00;;;0.40;98.30;;;;;;5090704;23;20214;-82
2021/01/29 03:51:15;;;;;;;4.35;3.95;;;0.30;98.30;;;;;;5099350;23;20218;-83
2021/01/29 03:53:34;;;;;;;9.85;4.30;;;0.20;98.30;;;;;;5098732;23;20209;-83
2021/01/29 03:55:44;;;;;;;6.15;4.07;;;0.40;98.30;;;;;;5099056;23;20195;-83
2021/01/29 03:57:59;;;;;;;6.15;3.70;;;0.30;98.30;;;;;;5099866;23;20206;-83
2021/01/29 04:00:12;;;;;;;4.88;4.10;;;0.30;98.30;;;;;;5090655;23;20556;-83
2021/01/29 04:02:20;;;;;;;9.27;4.00;;;0.40;98.30;;;;;;5099442;23;20201;-82
2021/01/29 04:04:31;;;;;;;6.00;4.40;;;0.30;98.30;;;;;;5099198;23;21002;-84
2021/01/29 04:06:39;;;;;;;5.38;3.60;;;0.30;98.30;;;;;;5090250;23;20211;-83
2021/01/29 04:08:48;;;;;;;5.60;4.03;;;0.40;98.30;;;;;;5090089;23;20678;-83
2021/01/29 04:10:58;;;;;;;6.00;4.03;;;0.40;98.30;;;;;;5098417;23;20201;-83
2021/01/29 04:13:07;;;;;;;4.82;3.80;;;0.40;98.30;;;;;;5098650;23;20265;-83
2021/01/29 04:15:15;;;;;;;7.75;4.30;;;0.40;98.30;;;;;;5099646;23;20663;-82
2021/01/29 04:17:23;;;;;;;6.95;3.50;;;0.30;98.30;;;;;;5098579;23;20208;-82
2021/01/29 04:19:30;;;;;;;4.75;4.07;;;0.20;98.30;;;;;;5098493;23;20205;-83
2021/01/29 04:21:36;;;;;;;5.63;4.55;;;0.30;98.30;;;;;;5091327;23;20264;-83
2021/01/29 04:23:44;;;;;;;6.60;3.97;;;0.30;98.30;;;;;;5091488;23;20209;-82
2021/01/29 04:25:57;;;;;;;8.77;4.45;;;0.20;98.30;;;;;;5099404;23;20196;-83
2021/01/29 04:28:05;;;;;;;5.15;4.13;;;0.20;98.30;;;;;;5099676;23;20199;-82
2021/01/29 04:30:14;;;;;;;9.07;5.30;;;0.20;98.30;;;;;;5098842;23;20585;-83
2021/01/29 04:32:21;;;;;;;5.70;4.13;;;0.20;98.30;;;;;;5099480;23;20285;-82
2021/01/29 04:34:28;;;;;;;7.45;4.82;;;0.30;98.30;;;;;;5099161;23;20200;-83
2021/01/29 04:36:33;;;;;;;6.88;4.60;;;0.30;98.30;;;;;;5099258;23;20202;-83
2021/01/29 04:38:41;;;;;;;5.57;4.47;;;0.30;98.30;;;;;;5091541;23;20210;-82
2021/01/29 04:40:51;;;;;;;11.18;4.10;;;0.20;98.30;;;;;;5098638;23;20234;-84
2021/01/29 04:43:04;;;;;;;7.25;4.63;;;0.20;98.30;;;;;;5090966;23;20219;-82
2021/01/29 04:45:24;;;;;;;8.63;5.13;;;0.20;98.30;;;;;;5099567;23;20653;-82
2021/01/29 04:47:30;;;;;;;6.68;5.40;;;0.30;98.30;;;;;;5091368;23;20214;-83
2021/01/29 04:49:43;;;;;;;11.05;6.60;;;0.30;98.30;;;;;;5098548;23;20210;-82
2021/01/29 04:52:31;;;;;;;9.82;5.45;;;0.30;98.30;;;;;;5099603;23;20241;-83
2021/01/29 04:54:42;;;;;;;7.68;5.03;;;0.40;98.30;;;;;;5101268;23;20592;-83
2021/01/29 04:57:21;;;;;;;6.55;4.55;;;0.30;98.30;;;;;;5100535;23;20213;-82
2021/01/29 04:59:34;;;;;;;10.38;5.25;;;0.20;98.30;;;;;;5091744;23;20280;-82
2021/01/29 05:01:53;;;;;;;7.40;5.30;;;0.20;98.30;;;;;;5101817;23;20324;-85
2021/01/29 05:04:27;;;;;;;6.60;5.65;;;0.20;98.30;;;;;;5100687;23;20207;-82
2021/01/29 05:06:51;;;;;;;5.43;4.53;;;0.10;98.30;;;;;;5100793;23;20295;-82
2021/01/29 05:09:14;;;;;;;12.73;5.72;;;0.20;98.30;;;;;;5100645;23;20210;-83
2021/01/29 05:11:56;;;;;;;7.60;5.50;;;0.20;98.30;;;;;;5073887;23;20233;-83
2021/01/29 05:14:19;;;;;;;6.57;5.05;;;0.10;98.30;;;;;;5031703;23;21065;-82
2021/01/29 05:16:55;;;;;;;6.72;5.00;;;0.10;98.30;;;;;;5100676;23;20201;-82
2021/01/29 05:19:35;;;;;;;7.55;5.50;;;0.00;98.30;;;;;;5100393;23;20211;-83
2021/01/29 05:21:56;;;;;;;7.47;5.05;;;0.00;98.30;;;;;;5103452;23;20284;-82
2021/01/29 05:24:11;;;;;;;12.07;7.15;;;0.00;98.30;;;;;;5107987;23;20625;-83
2021/01/29 05:26:50;;;;;;;7.90;5.35;;;0.00;98.30;;;;;;5105063;23;20625;-83
2021/01/29 05:29:16;;;;;;;6.75;5.68;;;0.00;98.30;;;;;;5094815;23;20694;-83
2021/01/29 05:31:34;;;;;;;8.07;4.97;;;0.00;98.30;;;;;;5102985;23;20207;-83
2021/01/29 05:33:56;;;;;;;7.75;5.00;;;0.00;98.30;;;;;;5102321;23;20224;-83
2021/01/29 05:36:36;;;;;;;5.95;5.32;;;0.00;98.30;;;;;;5101516;23;20203;-83
2021/01/29 05:39:15;;;;;;;5.78;4.50;;;0.00;98.30;;;;;;5004487;23;20213;-83
2021/01/29 05:41:39;;;;;;;5.40;4.45;;;0.00;98.30;;;;;;5101056;23;20203;-82
2021/01/29 05:44:13;;;;;;;6.55;4.25;;;-0.10;98.30;;;;;;5103766;23;20211;-82
2021/01/29 05:46:23;;;;;;;7.97;4.50;;;-0.10;98.30;;;;;;5088808;23;20243;-82
2021/01/29 05:49:02;;;;;;;6.45;4.97;;;-0.10;98.30;;;;;;5094206;23;20288;-82
2021/01/29 05:51:22;;;;;;;6.88;4.43;;;0.00;98.30;;;;;;5094778;23;20212;-82
2021/01/29 05:53:50;;;;;;;12.48;4.50;;;0.00;98.30;;;;;;5102532;23;20197;-83
2021/01/29 05:55:59;;;;;;;6.97;4.60;;;0.00;98.30;;;;;;5101928;23;20244;-82
2021/01/29 05:58:37;;;;;;;5.18;4.25;;;0.00;98.30;;;;;;5094183;23;20207;-83
2021/01/29 06:01:04;;;;;;;5.75;4.53;;;0.00;98.30;;;;;;5101629;23;20277;-83
2021/01/29 06:03:27;;;;;;;5.68;4.50;;;0.00;98.30;;;;;;5102418;23;20701;-82
2021/01/29 06:05:49;;;;;;;6.43;4.15;;;-0.10;98.30;;;;;;5102231;23;20203;-82
2021/01/29 06:08:25;;;;;;;5.43;4.20;;;-0.10;98.30;;;;;;5103131;23;20203;-82
2021/01/29 06:10:55;;;;;;;6.18;5.45;;;-0.10;98.30;;;;;;5101415;23;20357;-83
2021/01/29 06:13:14;;;;;;;6.93;4.20;;;-0.10;98.30;;;;;;5093854;23;20223;-82
2021/01/29 06:15:48;;;;;;;5.05;4.53;;;0.00;98.30;;;;;;5092152;23;20207;-82
2021/01/29 06:18:16;;;;;;;5.45;4.25;;;0.00;98.30;;;;;;5102196;23;20210;-82
2021/01/29 06:21:06;;;;;;;7.28;4.55;;;0.00;98.30;;;;;;5101389;23;20205;-82
2021/01/29 06:23:32;;;;;;;6.90;4.75;;;0.10;98.30;;;;;;5002862;23;20672;-83
2021/01/29 06:25:59;;;;;;;18.35;5.43;;;0.00;98.30;;;;;;5101195;23;20285;-83
2021/01/29 06:28:41;;;;;;;6.75;4.00;;;0.00;98.30;;;;;;5094250;23;20265;-83
2021/01/29 06:30:57;;;;;;;5.13;3.83;;;0.00;98.30;;;;;;5102358;23;20200;-82
2021/01/29 06:33:29;;;;;;;5.22;3.70;;;0.10;98.30;;;;;;5102516;23;20211;-83
2021/01/29 06:35:58;;;;;;;5.55;4.05;;;0.00;98.30;;;;;;5103088;23;20205;-82
2021/01/29 06:38:16;;;;;;;4.47;3.50;;;0.00;98.30;;;;;;5085612;23;20212;-83
2021/01/29 06:40:26;;;;;;;8.80;4.18;;;0.10;98.30;;;;;;5101692;23;20265;-83
2021/01/29 06:43:02;;;;;;;4.38;3.17;;;0.00;98.30;;;;;;5102384;23;20203;-82
2021/01/29 06:45:25;;;;;;;6.35;3.72;;;0.00;98.30;;;;;;5101767;23;20202;-82
2021/01/29 06:47:46;;;;;;;5.38;3.90;;;0.10;98.30;;;;;;5071734;23;20262;-82
2021/01/29 06:50:23;;;;;;;5.80;3.50;;;0.10;98.30;;;;;;5101197;23;20234;-82
2021/01/29 06:53:07;;;;;;;4.85;3.45;;;0.00;98.30;;;;;;5071427;23;20208;-82
2021/01/29 06:55:28;;;;;;;5.53;3.50;;;0.00;98.30;;;;;;5077640;23;20208;-83
2021/01/29 06:58:05;;;;;;;5.57;3.60;;;0.00;98.30;;;;;;5094159;23;20211;-82
2021/01/29 07:00:20;;;;;;;4.80;3.40;;;0.00;98.30;;;;;;5101960;23;20246;-83
2021/01/29 07:02:52;;;;;;;7.32;3.08;;;0.00;98.30;;;;;;5101822;23;20278;-82
2021/01/29 07:05:14;;;;;;;10.65;4.60;;;0.10;98.30;;;;;;5102403;23;20233;-82
2021/01/29 07:07:28;;;;;;;8.43;3.30;;;0.00;98.30;;;;;;5101626;23;20227;-83
2021/01/29 07:09:53;;;;;;;6.72;3.40;;;0.00;98.30;;;;;;5100968;23;20292;-83
2021/01/29 07:12:40;;;;;;;7.57;3.88;;;0.00;98.30;;;;;;5101230;23;20226;-84
2021/01/29 07:14:57;;;;;;;4.75;2.95;;;0.00;98.30;;;;;;4979190;23;21062;-83
2021/01/29 07:17:08;;;;;;;13.80;4.75;;;0.00;98.30;;;;;;5050288;23;20203;-84
2021/01/29 07:19:28;;;;;;;4.60;2.80;;;0.00;98.30;;;;;;5100078;23;20203;-83
2021/01/29 07:21:46;;;;;;;6.00;2.75;;;0.10;98.30;;;;;;5099837;23;20248;-83
2021/01/29 07:24:05;;;;;;;8.18;3.00;;;0.10;98.30;;;;;;5099207;23;20223;-83
2021/01/29 07:26:16;;;;;;;5.60;3.05;;;0.00;98.30;;;;;;5091464;23;20208;-83
2021/01/29 07:28:32;;;;;;;9.13;3.03;;;0.10;98.30;;;;;;5092233;23;20219;-82
2021/01/29 07:30:59;;;;;;;4.75;3.20;;;0.10;98.30;;;;;;5100235;23;20523;-82
2021/01/29 07:33:08;;;;;;;4.68;3.15;;;0.10;98.30;;;;;;5098335;23;20644;-82
2021/01/29 07:35:19;;;;;;;8.13;3.53;;;0.00;98.30;;;;;;5100042;23;20217;-81
2021/01/29 07:37:40;;;;;;;3.15;2.80;;;0.10;98.30;;;;;;5100711;23;20225;-82
2021/01/29 07:39:54;;;;;;;4.47;3.13;;;0.00;98.30;;;;;;5099391;23;20204;-84
2021/01/29 07:42:18;;;;;;;4.25;2.50;;;0.10;98.30;;;;;;5100500;23;20672;-85
2021/01/29 07:44:33;;;;;;;3.60;2.90;;;0.10;98.30;;;;;;5099086;23;20328;-84
2021/01/29 07:47:07;;;;;;;7.10;2.78;;;0.10;98.30;;;;;;5099311;23;20208;-84
2021/01/29 07:49:27;;;;;;;6.97;2.65;;;0.20;98.30;;;;;;5087262;23;20216;-84
2021/01/29 07:51:38;;;;;;;6.25;3.03;;;0.20;98.30;;;;;;5098667;23;20205;-85
2021/01/29 07:53:52;;;;;;;4.13;2.83;;;0.20;98.30;;;;;;5099556;23;20296;-84
2021/01/29 07:59:21;;;;;;;6.13;3.35;;;0.30;98.30;;;;;;5099162;23;20234;-84
2021/01/29 08:01:42;;;;;;;3.10;2.60;;;0.30;98.30;;;;;;5099724;23;20234;-83
2021/01/29 08:04:20;;;;;;;4.05;2.83;;;0.20;98.30;;;;;;5091842;23;20214;-84
2021/01/29 08:06:27;;;;;;;5.10;3.00;;;0.20;98.30;;;;;;5000747;23;20383;-85
2021/01/29 08:08:34;;;;;;;6.63;3.20;;;0.20;98.30;;;;;;5094946;23;20205;-84
2021/01/29 08:10:39;;;;;;;6.85;3.30;;;0.30;98.30;;;;;;5090255;23;20223;-84
2021/01/29 08:12:50;;;;;;;5.30;3.30;;;0.30;98.30;;;;;;5099008;23;20669;-85
2021/01/29 08:15:17;;;;;;;5.30;2.63;;;0.30;98.30;;;;;;5098839;23;20250;-84
2021/01/29 08:17:41;;;;;;;5.28;2.83;;;0.30;98.30;;;;;;5098941;23;20201;-83
2021/01/29 08:19:56;;;;;;;3.60;3.17;;;0.20;98.30;;;;;;5098825;23;20205;-84
2021/01/29 08:22:28;;;;;;;5.47;3.00;;;0.20;98.30;;;;;;5099208;23;20264;-83
2021/01/29 08:24:46;;;;;;;4.05;2.90;;;0.20;98.30;;;;;;5087065;23;20226;-84
2021/01/29 08:27:06;;;;;;;4.93;2.78;;;0.20;98.30;;;;;;5100032;23;20672;-84
2021/01/29 08:29:50;;;;;;;3.47;3.17;;;0.20;98.30;;;;;;5099668;23;20647;-84
2021/01/29 08:32:21;;;;;;;7.22;3.40;;;0.30;98.30;;;;;;5099756;23;20203;-85
2021/01/29 08:34:55;;;;;;;6.53;3.03;;;0.40;98.30;;;;;;5099378;23;20244;-84
2021/01/29 08:37:25;;;;;;;4.80;3.50;;;0.40;98.30;;;;;;5099659;23;20208;-84
2021/01/29 08:39:33;;;;;;;4.40;3.00;;;0.50;98.30;;;;;;5098937;23;20722;-84
2021/01/29 08:41:49;;;;;;;7.05;3.05;;;0.40;98.30;;;;;;5099603;23;20264;-84
2021/01/29 08:44:16;;;;;;;5.15;3.60;;;0.40;98.30;;;;;;5099697;23;20202;-84
2021/01/29 08:46:41;;;;;;;5.05;2.92;;;0.40;98.30;;;;;;5099597;23;20210;-84
2021/01/29 08:49:02;;;;;;;4.10;3.00;;;0.40;98.30;;;;;;5085862;23;20199;-83
2021/01/29 08:51:17;;;;;;;5.50;3.17;;;0.40;98.30;;;;;;5099704;23;20544;-83
2021/01/29 08:53:54;;;;;;;9.82;3.65;;;0.50;98.30;;;;;;5100099;23;20285;-84
2021/01/29 08:56:05;;;;;;;5.35;3.33;;;0.50;98.30;;;;;;5084738;23;20234;-84
2021/01/29 08:58:14;;;;;;;5.80;2.92;;;0.60;98.30;;;;;;5101629;23;20205;-84
2021/01/29 09:00:23;;;;;;;5.15;3.13;;;0.50;98.30;;;;;;5101046;23;20277;-84
2021/01/29 09:02:38;;;;;;;9.75;5.65;;;0.50;98.30;;;;;;5101169;23;20581;-84
2021/01/29 09:04:49;;;;;;;8.88;3.22;;;0.60;98.30;;;;;;5101676;23;20281;-84
2021/01/29 09:06:55;;;;;;;5.18;3.03;;;0.60;98.30;;;;;;5101841;23;20203;-85
2021/01/29 09:09:01;;;;;;;3.95;2.78;;;0.60;98.30;;;;;;5100932;23;20209;-83
2021/01/29 09:11:16;;;;;;;3.30;3.00;;;0.60;98.30;;;;;;5101487;23;20207;-84
2021/01/29 09:13:22;;;;;;;4.55;3.60;;;0.60;98.30;;;;;;5101214;23;20287;-84
2021/01/29 09:15:27;;;;;;;5.50;3.50;;;0.50;98.30;;;;;;5101051;23;20903;-84
2021/01/29 09:17:42;;;;;;;7.57;4.35;;;0.60;98.30;;;;;;5101236;23;20201;-85
2021/01/29 09:19:53;;;;;;;8.77;3.70;;;0.60;98.30;;;;;;5101625;23;20275;-84
2021/01/29 09:22:08;;;;;;;5.15;3.05;;;0.60;98.30;;;;;;5101044;23;20305;-84
2021/01/29 09:24:19;;;;;;;6.25;3.30;;;0.60;98.30;;;;;;5100765;23;20210;-84
2021/01/29 09:26:26;;;;;;;7.75;2.90;;;0.60;98.30;;;;;;5093015;23;20222;-84
2021/01/29 09:28:31;;;;;;;5.45;3.25;;;0.60;98.30;;;;;;5100873;23;20210;-83
2021/01/29 09:30:38;;;;;;;3.30;2.83;;;0.60;98.30;;;;;;5099934;23;20206;-84
2021/01/29 09:32:53;;;;;;;4.82;2.90;;;0.60;98.30;;;;;;5100947;23;20654;-84
2021/01/29 09:35:01;;;;;;;10.25;3.25;;;0.70;98.30;;;;;;5101078;23;20519;-84
2021/01/29 09:37:10;;;;;;;3.42;2.70;;;0.80;98.30;;;;;;5100923;23;20253;-83
2021/01/29 09:39:42;;;;;;;4.45;3.20;;;0.70;98.10;;;;;;5092467;23;20590;-83
2021/01/29 09:41:48;;;;;;;3.65;2.60;;;0.80;97.30;;;;;;5101282;23;20289;-84
2021/01/29 09:44:07;;;;;;;6.35;3.10;;;0.70;97.10;;;;;;5101100;23;20207;-84
2021/01/29 09:46:10;;;;;;;9.15;3.38;;;0.70;97.40;;;;;;5090553;23;20232;-83
2021/01/29 09:48:14;;;;;;;4.22;2.70;;;0.70;96.90;;;;;;5101027;23;20207;-84
2021/01/29 09:50:22;;;;;;;5.45;2.72;;;0.80;97.20;;;;;;5100311;23;20213;-84
2021/01/29 09:52:32;;;;;;;6.75;2.63;;;0.80;96.70;;;;;;5101629;23;20213;-84
2021/01/29 09:54:44;;;;;;;2.95;2.47;;;0.80;96.40;;;;;;5093039;23;20209;-84
2021/01/29 09:56:55;;;;;;;3.08;2.75;;;0.70;96.30;;;;;;5101411;23;20297;-83
2021/01/29 09:59:19;;;;;;;3.40;2.47;;;0.70;96.50;;;;;;5100102;23;20199;-84
2021/01/29 10:01:21;;;;;;;3.58;2.90;;;0.80;97.00;;;;;;5101466;23;20539;-83
2021/01/29 10:03:30;;;;;;;4.40;3.20;;;0.70;95.80;;;;;;5101039;23;20210;-84
2021/01/29 10:05:38;;;;;;;7.68;3.90;;;0.70;96.70;;;;;;5101431;23;20207;-84
2021/01/29 10:07:47;;;;;;;3.90;2.97;;;0.80;96.70;;;;;;5101271;23;20213;-83
2021/01/29 10:10:05;;;;;;;3.92;2.50;;;0.80;96.10;;;;;;5100662;23;20204;-84
2021/01/29 10:12:16;;;;;;;4.72;2.60;;;0.80;96.50;;;;;;5101320;23;20210;-84
2021/01/29 10:14:23;;;;;;;4.20;2.80;;;0.70;96.90;;;;;;5100446;23;20247;-84
2021/01/29 10:16:36;;;;;;;4.10;2.90;;;0.70;97.10;;;;;;5100633;23;20195;-84
2021/01/29 10:18:40;;;;;;;4.82;2.72;;;0.70;96.70;;;;;;5100499;23;20593;-84
2021/01/29 10:20:43;;;;;;;12.52;4.13;;;0.70;96.50;;;;;;5100140;23;20280;-83
2021/01/29 10:23:04;;;;;;;4.35;2.72;;;0.80;97.10;;;;;;5100195;23;20197;-83
2021/01/29 10:25:18;;;;;;;4.82;2.70;;;0.90;96.60;;;;;;5100415;23;20257;-84
2021/01/29 10:27:25;;;;;;;6.97;3.13;;;0.80;95.80;;;;;;5100933;23;20243;-84
2021/01/29 10:29:33;;;;;;;4.60;3.17;;;0.80;96.50;;;;;;5099582;23;20230;-84
2021/01/29 10:31:55;;;;;;;6.43;3.10;;;0.90;96.30;;;;;;5100308;23;20211;-84
2021/01/29 10:34:23;;;;;;;3.67;2.83;;;0.90;96.10;;;;;;5100420;23;20203;-83
2021/01/29 10:36:28;;;;;;;3.97;2.78;;;0.90;96.60;;;;;;5100286;23;20577;-84
2021/01/29 10:38:39;;;;;;;6.13;3.25;;;0.90;96.60;;;;;;5100222;23;20253;-84
2021/01/29 10:40:53;;;;;;;7.10;2.80;;;1.00;97.00;;;;;;5091856;23;20213;-85
2021/01/29 10:43:04;;;;;;;5.30;2.80;;;1.10;97.40;;;;;;5100137;23;20207;-84
2021/01/29 10:45:16;;;;;;;4.07;3.10;;;1.10;97.00;;;;;;5100484;23;20694;-84
2021/01/29 10:47:23;;;;;;;4.78;2.95;;;1.00;97.10;;;;;;5100498;23;20281;-84
2021/01/29 10:49:32;;;;;;;6.88;3.30;;;1.00;97.60;;;;;;5091600;23;20213;-84
2021/01/29 10:51:43;;;;;;;6.18;4.25;;;1.10;97.20;;;;;;5099977;23;20238;-84
2021/01/29 10:53:45;;;;;;;5.20;3.22;;;1.10;97.30;;;;;;5100043;23;20210;-83
2021/01/29 10:55:56;;;;;;;5.47;2.70;;;1.10;97.80;;;;;;5099454;23;20215;-83
2021/01/29 10:58:40;;;;;;;4.03;3.05;;;1.10;96.40;;;;;;5099045;23;20280;-83
2021/01/29 11:00:43;;;;;;;5.38;3.20;;;1.10;97.60;;;;;;5097566;23;20515;-83
2021/01/29 11:02:49;;;;;;;5.90;3.10;;;1.10;97.60;;;;;;5099379;23;20200;-83
2021/01/29 11:04:58;;;;;;;5.95;3.47;;;1.10;97.90;;;;;;5099067;23;20231;-83
2021/01/29 11:07:04;;;;;;;3.05;2.75;;;1.10;97.00;;;;;;5099526;23;20643;-84
2021/01/29 11:09:14;;;;;;;4.15;2.97;;;1.10;97.60;;;;;;5098738;23;20248;-83
2021/01/29 11:11:23;;;;;;;5.63;3.20;;;1.00;97.00;;;;;;5099370;23;20573;-82
2021/01/29 11:13:46;;;;;;;5.10;3.33;;;1.10;97.30;;;;;;5100314;23;20202;-83
2021/01/29 11:15:57;;;;;;;3.63;2.95;;;1.10;97.90;;;;;;5099258;23;20262;-83
2021/01/29 11:18:07;;;;;;;4.28;3.25;;;1.10;98.00;;;;;;5098978;23;20279;-83
2021/01/29 11:20:18;;;;;;;3.85;3.15;;;1.10;98.30;;;;;;5098686;23;20814;-83
2021/01/29 11:22:28;;;;;;;5.45;3.03;;;1.00;98.30;;;;;;5099544;23;20325;-83
2021/01/29 11:24:39;;;;;;;5.95;3.00;;;1.10;98.30;;;;;;5099055;23;20219;-83
2021/01/29 11:26:49;;;;;;;5.95;3.70;;;1.00;98.30;;;;;;5099288;23;20203;-83
2021/01/29 11:29:06;;;;;;;4.32;3.20;;;0.90;98.30;;;;;;5099247;23;20217;-83
2021/01/29 11:31:15;;;;;;;5.10;3.40;;;0.90;98.30;;;;;;5099137;23;20591;-83
2021/01/29 11:33:26;;;;;;;4.18;3.00;;;1.00;98.30;;;;;;5099089;23;20702;-83
2021/01/29 11:35:44;;;;;;;6.38;3.35;;;1.00;98.30;;;;;;5098855;23;20201;-82
2021/01/29 11:38:16;;;;;;;3.92;3.60;;;0.90;98.30;;;;;;5099025;23;20655;-83
2021/01/29 11:40:24;;;;;;;10.02;3.75;;;1.00;98.30;;;;;;5090687;23;20203;-83
2021/01/29 11:42:37;;;;;;;4.63;4.22;;;1.10;98.30;;;;;;5091298;23;20662;-83
2021/01/29 11:44:54;;;;;;;4.55;3.30;;;1.10;98.30;;;;;;5098704;23;20226;-83
2021/01/29 11:47:03;;;;;;;6.75;3.80;;;1.00;98.30;;;;;;5090815;23;20539;-83